sensor_id;sensor_type;location;lat;lon;timestamp;P1;durP1;ratioP1;P2;durP2;ratioP2
52180;SDS011;38158;53.338;6.514;2022-08-06T00:00:57;3.15;;;0.32;;
52180;SDS011;38158;53.338;6.514;2022-08-06T00:03:24;2.38;;;0.40;;
52180;SDS011;38158;53.338;6.514;2022-08-06T00:05:49;5.40;;;0.47;;
52180;SDS011;38158;53.338;6.514;2022-08-06T00:08:15;1.67;;;0.40;;
52180;SDS011;38158;53.338;6.514;2022-08-06T00:10:41;1.23;;;0.30;;
52180;SDS011;38158;53.338;6.514;2022-08-06T00:13:07;1.23;;;0.38;;
52180;SDS011;38158;53.338;6.514;2022-08-06T00:15:33;4.72;;;0.40;;
52180;SDS011;38158;53.338;6.514;2022-08-06T00:17:59;3.38;;;0.60;;
52180;SDS011;38158;53.338;6.514;2022-08-06T00:20:24;1.42;;;0.30;;
52180;SDS011;38158;53.338;6.514;2022-08-06T00:22:50;2.88;;;0.45;;
52180;SDS011;38158;53.338;6.514;2022-08-06T00:25:16;2.33;;;0.45;;
52180;SDS011;38158;53.338;6.514;2022-08-06T00:27:42;1.02;;;0.30;;
52180;SDS011;38158;53.338;6.514;2022-08-06T00:30:08;1.42;;;0.32;;
52180;SDS011;38158;53.338;6.514;2022-08-06T00:32:35;4.45;;;0.50;;
52180;SDS011;38158;53.338;6.514;2022-08-06T00:35:01;1.07;;;0.30;;
52180;SDS011;38158;53.338;6.514;2022-08-06T00:37:27;1.67;;;0.60;;
52180;SDS011;38158;53.338;6.514;2022-08-06T00:39:57;2.30;;;0.38;;
52180;SDS011;38158;53.338;6.514;2022-08-06T00:42:23;2.58;;;0.30;;
52180;SDS011;38158;53.338;6.514;2022-08-06T00:44:49;1.73;;;0.30;;
52180;SDS011;38158;53.338;6.514;2022-08-06T00:47:15;5.68;;;0.65;;
52180;SDS011;38158;53.338;6.514;2022-08-06T00:49:41;1.42;;;0.50;;
52180;SDS011;38158;53.338;6.514;2022-08-06T00:52:06;1.70;;;0.40;;
52180;SDS011;38158;53.338;6.514;2022-08-06T00:54:32;1.63;;;0.32;;
52180;SDS011;38158;53.338;6.514;2022-08-06T00:56:58;3.42;;;0.63;;
52180;SDS011;38158;53.338;6.514;2022-08-06T00:59:23;4.63;;;0.50;;
52180;SDS011;38158;53.338;6.514;2022-08-06T01:01:49;2.47;;;0.50;;
52180;SDS011;38158;53.338;6.514;2022-08-06T01:04:15;1.65;;;0.43;;
52180;SDS011;38158;53.338;6.514;2022-08-06T01:06:40;2.35;;;0.40;;
52180;SDS011;38158;53.338;6.514;2022-08-06T01:09:06;3.53;;;0.63;;
52180;SDS011;38158;53.338;6.514;2022-08-06T01:11:33;2.92;;;0.88;;
52180;SDS011;38158;53.338;6.514;2022-08-06T01:13:59;3.45;;;0.40;;
52180;SDS011;38158;53.338;6.514;2022-08-06T01:16:25;1.73;;;0.50;;
52180;SDS011;38158;53.338;6.514;2022-08-06T01:28:02;4.22;;;0.60;;
52180;SDS011;38158;53.338;6.514;2022-08-06T01:30:36;4.78;;;0.60;;
52180;SDS011;38158;53.338;6.514;2022-08-06T01:33:08;2.30;;;0.50;;
52180;SDS011;38158;53.338;6.514;2022-08-06T01:35:40;4.05;;;0.60;;
52180;SDS011;38158;53.338;6.514;2022-08-06T01:38:16;2.22;;;0.80;;
52180;SDS011;38158;53.338;6.514;2022-08-06T01:41:07;1.90;;;0.57;;
52180;SDS011;38158;53.338;6.514;2022-08-06T01:43:35;2.85;;;0.50;;
52180;SDS011;38158;53.338;6.514;2022-08-06T01:46:03;2.65;;;0.60;;
52180;SDS011;38158;53.338;6.514;2022-08-06T01:48:31;2.42;;;0.60;;
52180;SDS011;38158;53.338;6.514;2022-08-06T01:51:00;1.92;;;0.60;;
52180;SDS011;38158;53.338;6.514;2022-08-06T01:53:34;2.00;;;0.40;;
52180;SDS011;38158;53.338;6.514;2022-08-06T01:56:02;2.47;;;0.50;;
52180;SDS011;38158;53.338;6.514;2022-08-06T01:58:33;6.38;;;0.70;;
52180;SDS011;38158;53.338;6.514;2022-08-06T02:01:03;3.33;;;0.70;;
52180;SDS011;38158;53.338;6.514;2022-08-06T02:06:06;2.42;;;0.60;;
52180;SDS011;38158;53.338;6.514;2022-08-06T02:11:01;2.05;;;0.60;;
52180;SDS011;38158;53.338;6.514;2022-08-06T02:13:28;4.32;;;0.60;;
52180;SDS011;38158;53.338;6.514;2022-08-06T02:15:56;0.80;;;0.50;;
52180;SDS011;38158;53.338;6.514;2022-08-06T02:18:23;2.38;;;0.77;;
52180;SDS011;38158;53.338;6.514;2022-08-06T02:20:51;2.75;;;0.80;;
52180;SDS011;38158;53.338;6.514;2022-08-06T02:23:20;1.70;;;0.50;;
52180;SDS011;38158;53.338;6.514;2022-08-06T02:25:48;2.78;;;0.80;;
52180;SDS011;38158;53.338;6.514;2022-08-06T02:28:18;3.85;;;0.73;;
52180;SDS011;38158;53.338;6.514;2022-08-06T02:30:47;2.95;;;0.70;;
52180;SDS011;38158;53.338;6.514;2022-08-06T02:33:16;2.58;;;0.70;;
52180;SDS011;38158;53.338;6.514;2022-08-06T02:35:44;1.93;;;0.77;;
52180;SDS011;38158;53.338;6.514;2022-08-06T02:38:23;5.18;;;0.82;;
52180;SDS011;38158;53.338;6.514;2022-08-06T02:41:02;4.10;;;0.60;;
52180;SDS011;38158;53.338;6.514;2022-08-06T02:43:39;3.88;;;0.80;;
52180;SDS011;38158;53.338;6.514;2022-08-06T02:46:14;3.75;;;0.82;;
52180;SDS011;38158;53.338;6.514;2022-08-06T02:48:56;2.75;;;0.70;;
52180;SDS011;38158;53.338;6.514;2022-08-06T02:54:10;4.22;;;0.80;;
52180;SDS011;38158;53.338;6.514;2022-08-06T02:56:41;2.22;;;0.70;;
52180;SDS011;38158;53.338;6.514;2022-08-06T02:59:10;2.63;;;0.80;;
52180;SDS011;38158;53.338;6.514;2022-08-06T03:01:41;2.17;;;0.80;;
52180;SDS011;38158;53.338;6.514;2022-08-06T03:04:20;2.25;;;0.98;;
52180;SDS011;38158;53.338;6.514;2022-08-06T03:06:50;1.95;;;0.98;;
52180;SDS011;38158;53.338;6.514;2022-08-06T03:11:44;2.53;;;0.90;;
52180;SDS011;38158;53.338;6.514;2022-08-06T03:14:11;2.65;;;1.05;;
52180;SDS011;38158;53.338;6.514;2022-08-06T03:16:39;5.15;;;1.38;;
52180;SDS011;38158;53.338;6.514;2022-08-06T03:19:06;3.78;;;1.10;;
52180;SDS011;38158;53.338;6.514;2022-08-06T03:21:34;2.63;;;1.40;;
52180;SDS011;38158;53.338;6.514;2022-08-06T03:24:01;2.78;;;1.20;;
52180;SDS011;38158;53.338;6.514;2022-08-06T03:26:29;2.25;;;1.20;;
52180;SDS011;38158;53.338;6.514;2022-08-06T03:28:56;2.83;;;1.00;;
52180;SDS011;38158;53.338;6.514;2022-08-06T03:31:25;2.70;;;1.30;;
52180;SDS011;38158;53.338;6.514;2022-08-06T03:33:52;3.72;;;1.50;;
52180;SDS011;38158;53.338;6.514;2022-08-06T03:36:18;2.72;;;1.58;;
52180;SDS011;38158;53.338;6.514;2022-08-06T03:41:16;4.28;;;1.40;;
52180;SDS011;38158;53.338;6.514;2022-08-06T03:43:42;3.67;;;1.48;;
52180;SDS011;38158;53.338;6.514;2022-08-06T03:46:08;2.72;;;1.50;;
52180;SDS011;38158;53.338;6.514;2022-08-06T03:48:37;2.45;;;1.30;;
52180;SDS011;38158;53.338;6.514;2022-08-06T03:51:15;3.08;;;1.40;;
52180;SDS011;38158;53.338;6.514;2022-08-06T03:53:45;3.03;;;1.40;;
52180;SDS011;38158;53.338;6.514;2022-08-06T03:58:44;4.70;;;1.75;;
52180;SDS011;38158;53.338;6.514;2022-08-06T04:01:12;3.58;;;1.60;;
52180;SDS011;38158;53.338;6.514;2022-08-06T04:03:41;6.05;;;1.55;;
52180;SDS011;38158;53.338;6.514;2022-08-06T04:06:08;2.60;;;1.42;;
52180;SDS011;38158;53.338;6.514;2022-08-06T04:11:01;4.93;;;1.75;;
52180;SDS011;38158;53.338;6.514;2022-08-06T04:13:27;1.60;;;1.05;;
52180;SDS011;38158;53.338;6.514;2022-08-06T04:15:54;4.20;;;1.48;;
52180;SDS011;38158;53.338;6.514;2022-08-06T04:18:23;6.13;;;1.55;;
52180;SDS011;38158;53.338;6.514;2022-08-06T04:20:52;2.60;;;1.20;;
52180;SDS011;38158;53.338;6.514;2022-08-06T04:23:20;6.35;;;1.50;;
52180;SDS011;38158;53.338;6.514;2022-08-06T04:25:47;4.15;;;1.58;;
52180;SDS011;38158;53.338;6.514;2022-08-06T04:28:17;3.92;;;1.48;;
52180;SDS011;38158;53.338;6.514;2022-08-06T04:33:11;4.05;;;1.60;;
52180;SDS011;38158;53.338;6.514;2022-08-06T04:35:40;2.40;;;1.30;;
52180;SDS011;38158;53.338;6.514;2022-08-06T04:38:07;4.93;;;1.20;;
52180;SDS011;38158;53.338;6.514;2022-08-06T04:43:02;3.70;;;1.00;;
52180;SDS011;38158;53.338;6.514;2022-08-06T04:45:30;2.53;;;0.68;;
52180;SDS011;38158;53.338;6.514;2022-08-06T04:47:57;1.67;;;0.43;;
52180;SDS011;38158;53.338;6.514;2022-08-06T04:50:24;4.65;;;0.60;;
52180;SDS011;38158;53.338;6.514;2022-08-06T04:52:50;5.80;;;0.65;;
52180;SDS011;38158;53.338;6.514;2022-08-06T04:55:19;1.73;;;0.60;;
52180;SDS011;38158;53.338;6.514;2022-08-06T04:57:45;6.35;;;0.80;;
52180;SDS011;38158;53.338;6.514;2022-08-06T05:00:11;2.70;;;0.60;;
52180;SDS011;38158;53.338;6.514;2022-08-06T05:02:37;1.48;;;0.55;;
52180;SDS011;38158;53.338;6.514;2022-08-06T05:05:03;5.55;;;0.60;;
52180;SDS011;38158;53.338;6.514;2022-08-06T05:07:32;4.72;;;0.88;;
52180;SDS011;38158;53.338;6.514;2022-08-06T05:10:01;4.05;;;1.15;;
52180;SDS011;38158;53.338;6.514;2022-08-06T05:12:44;2.57;;;1.00;;
52180;SDS011;38158;53.338;6.514;2022-08-06T05:15:19;3.40;;;0.90;;
52180;SDS011;38158;53.338;6.514;2022-08-06T05:17:55;4.90;;;1.08;;
52180;SDS011;38158;53.338;6.514;2022-08-06T05:20:34;3.63;;;1.15;;
52180;SDS011;38158;53.338;6.514;2022-08-06T05:23:07;1.63;;;0.98;;
52180;SDS011;38158;53.338;6.514;2022-08-06T05:25:37;4.63;;;1.20;;
52180;SDS011;38158;53.338;6.514;2022-08-06T05:28:06;3.03;;;1.23;;
52180;SDS011;38158;53.338;6.514;2022-08-06T05:30:32;4.93;;;1.52;;
52180;SDS011;38158;53.338;6.514;2022-08-06T05:32:58;2.58;;;1.35;;
52180;SDS011;38158;53.338;6.514;2022-08-06T05:35:24;2.92;;;1.25;;
52180;SDS011;38158;53.338;6.514;2022-08-06T05:37:50;6.45;;;1.45;;
52180;SDS011;38158;53.338;6.514;2022-08-06T05:40:16;5.30;;;1.40;;
52180;SDS011;38158;53.338;6.514;2022-08-06T05:42:42;2.80;;;1.40;;
52180;SDS011;38158;53.338;6.514;2022-08-06T05:45:08;4.05;;;1.30;;
52180;SDS011;38158;53.338;6.514;2022-08-06T05:47:36;5.22;;;1.30;;
52180;SDS011;38158;53.338;6.514;2022-08-06T05:50:08;3.55;;;1.30;;
52180;SDS011;38158;53.338;6.514;2022-08-06T05:52:37;3.25;;;1.42;;
52180;SDS011;38158;53.338;6.514;2022-08-06T05:55:16;5.40;;;1.42;;
52180;SDS011;38158;53.338;6.514;2022-08-06T05:57:57;4.65;;;0.88;;
52180;SDS011;38158;53.338;6.514;2022-08-06T06:00:26;5.07;;;1.50;;
52180;SDS011;38158;53.338;6.514;2022-08-06T06:02:57;3.97;;;1.30;;
52180;SDS011;38158;53.338;6.514;2022-08-06T06:05:25;3.15;;;1.48;;
52180;SDS011;38158;53.338;6.514;2022-08-06T06:07:51;3.95;;;1.27;;
52180;SDS011;38158;53.338;6.514;2022-08-06T06:10:19;3.15;;;1.40;;
52180;SDS011;38158;53.338;6.514;2022-08-06T06:12:48;3.22;;;1.25;;
52180;SDS011;38158;53.338;6.514;2022-08-06T06:15:14;3.00;;;1.17;;
52180;SDS011;38158;53.338;6.514;2022-08-06T06:34:15;5.18;;;1.40;;
52180;SDS011;38158;53.338;6.514;2022-08-06T06:36:59;4.68;;;1.33;;
52180;SDS011;38158;53.338;6.514;2022-08-06T06:40:08;4.32;;;0.95;;
52180;SDS011;38158;53.338;6.514;2022-08-06T06:42:56;4.55;;;1.60;;
52180;SDS011;38158;53.338;6.514;2022-08-06T06:45:46;4.60;;;1.10;;
52180;SDS011;38158;53.338;6.514;2022-08-06T06:48:20;5.25;;;1.30;;
52180;SDS011;38158;53.338;6.514;2022-08-06T06:50:54;3.97;;;0.90;;
52180;SDS011;38158;53.338;6.514;2022-08-06T06:53:24;3.50;;;1.05;;
52180;SDS011;38158;53.338;6.514;2022-08-06T06:55:54;2.95;;;0.98;;
52180;SDS011;38158;53.338;6.514;2022-08-06T07:01:07;3.20;;;0.90;;
52180;SDS011;38158;53.338;6.514;2022-08-06T07:03:36;5.85;;;1.30;;
52180;SDS011;38158;53.338;6.514;2022-08-06T07:06:04;4.65;;;1.30;;
52180;SDS011;38158;53.338;6.514;2022-08-06T07:08:33;4.65;;;1.02;;
52180;SDS011;38158;53.338;6.514;2022-08-06T07:11:06;3.65;;;0.90;;
52180;SDS011;38158;53.338;6.514;2022-08-06T07:13:32;3.70;;;0.75;;
52180;SDS011;38158;53.338;6.514;2022-08-06T07:16:01;5.30;;;0.80;;
52180;SDS011;38158;53.338;6.514;2022-08-06T07:18:29;3.20;;;0.40;;
52180;SDS011;38158;53.338;6.514;2022-08-06T07:20:55;3.90;;;0.60;;
52180;SDS011;38158;53.338;6.514;2022-08-06T07:23:23;3.55;;;0.60;;
52180;SDS011;38158;53.338;6.514;2022-08-06T07:25:50;5.70;;;0.60;;
52180;SDS011;38158;53.338;6.514;2022-08-06T07:28:19;2.58;;;0.60;;
52180;SDS011;38158;53.338;6.514;2022-08-06T07:30:48;1.67;;;0.38;;
52180;SDS011;38158;53.338;6.514;2022-08-06T07:33:14;5.57;;;0.70;;
52180;SDS011;38158;53.338;6.514;2022-08-06T07:38:09;3.25;;;0.50;;
52180;SDS011;38158;53.338;6.514;2022-08-06T07:43:16;4.07;;;0.50;;
52180;SDS011;38158;53.338;6.514;2022-08-06T07:45:45;4.43;;;0.60;;
52180;SDS011;38158;53.338;6.514;2022-08-06T07:48:12;3.92;;;0.80;;
52180;SDS011;38158;53.338;6.514;2022-08-06T07:50:42;1.92;;;0.60;;
52180;SDS011;38158;53.338;6.514;2022-08-06T07:53:13;3.10;;;1.13;;
52180;SDS011;38158;53.338;6.514;2022-08-06T07:55:39;4.75;;;0.52;;
52180;SDS011;38158;53.338;6.514;2022-08-06T07:58:05;5.22;;;0.50;;
52180;SDS011;38158;53.338;6.514;2022-08-06T08:00:32;2.88;;;0.50;;
52180;SDS011;38158;53.338;6.514;2022-08-06T08:02:59;2.67;;;0.77;;
52180;SDS011;38158;53.338;6.514;2022-08-06T08:05:45;1.63;;;0.40;;
52180;SDS011;38158;53.338;6.514;2022-08-06T08:08:30;4.43;;;0.80;;
52180;SDS011;38158;53.338;6.514;2022-08-06T08:10:56;4.00;;;1.23;;
52180;SDS011;38158;53.338;6.514;2022-08-06T08:13:22;2.60;;;0.60;;
52180;SDS011;38158;53.338;6.514;2022-08-06T08:15:49;2.25;;;0.55;;
52180;SDS011;38158;53.338;6.514;2022-08-06T08:18:16;5.43;;;0.87;;
52180;SDS011;38158;53.338;6.514;2022-08-06T08:20:42;4.38;;;1.08;;
52180;SDS011;38158;53.338;6.514;2022-08-06T08:23:10;6.30;;;1.10;;
52180;SDS011;38158;53.338;6.514;2022-08-06T08:25:38;3.15;;;0.93;;
52180;SDS011;38158;53.338;6.514;2022-08-06T08:28:04;2.65;;;0.90;;
52180;SDS011;38158;53.338;6.514;2022-08-06T08:30:31;4.35;;;0.90;;
52180;SDS011;38158;53.338;6.514;2022-08-06T08:32:56;4.38;;;0.80;;
52180;SDS011;38158;53.338;6.514;2022-08-06T08:35:22;5.05;;;1.00;;
52180;SDS011;38158;53.338;6.514;2022-08-06T08:37:48;2.72;;;0.70;;
52180;SDS011;38158;53.338;6.514;2022-08-06T08:40:14;2.15;;;0.93;;
52180;SDS011;38158;53.338;6.514;2022-08-06T08:42:40;4.30;;;1.10;;
52180;SDS011;38158;53.338;6.514;2022-08-06T08:45:13;4.65;;;0.90;;
52180;SDS011;38158;53.338;6.514;2022-08-06T08:47:42;3.20;;;0.60;;
52180;SDS011;38158;53.338;6.514;2022-08-06T08:50:11;3.72;;;0.85;;
52180;SDS011;38158;53.338;6.514;2022-08-06T08:52:38;6.83;;;0.90;;
52180;SDS011;38158;53.338;6.514;2022-08-06T08:55:09;2.20;;;0.65;;
52180;SDS011;38158;53.338;6.514;2022-08-06T08:57:37;3.33;;;0.80;;
52180;SDS011;38158;53.338;6.514;2022-08-06T09:00:04;4.30;;;0.80;;
52180;SDS011;38158;53.338;6.514;2022-08-06T09:02:31;4.40;;;0.95;;
52180;SDS011;38158;53.338;6.514;2022-08-06T09:04:57;2.90;;;0.90;;
52180;SDS011;38158;53.338;6.514;2022-08-06T09:07:23;4.47;;;0.80;;
52180;SDS011;38158;53.338;6.514;2022-08-06T09:09:52;3.90;;;0.80;;
52180;SDS011;38158;53.338;6.514;2022-08-06T09:12:19;3.15;;;0.98;;
52180;SDS011;38158;53.338;6.514;2022-08-06T09:14:45;3.65;;;0.90;;
52180;SDS011;38158;53.338;6.514;2022-08-06T09:17:11;3.70;;;1.25;;
52180;SDS011;38158;53.338;6.514;2022-08-06T09:19:37;4.25;;;1.10;;
52180;SDS011;38158;53.338;6.514;2022-08-06T09:22:03;3.05;;;1.40;;
52180;SDS011;38158;53.338;6.514;2022-08-06T09:24:29;4.88;;;1.30;;
52180;SDS011;38158;53.338;6.514;2022-08-06T09:29:29;3.47;;;1.15;;
52180;SDS011;38158;53.338;6.514;2022-08-06T09:31:55;4.10;;;1.30;;
52180;SDS011;38158;53.338;6.514;2022-08-06T09:34:21;2.63;;;0.90;;
52180;SDS011;38158;53.338;6.514;2022-08-06T09:36:55;2.88;;;1.20;;
52180;SDS011;38158;53.338;6.514;2022-08-06T09:39:35;3.00;;;1.38;;
52180;SDS011;38158;53.338;6.514;2022-08-06T09:42:04;6.10;;;2.00;;
52180;SDS011;38158;53.338;6.514;2022-08-06T09:44:31;4.03;;;1.45;;
52180;SDS011;38158;53.338;6.514;2022-08-06T09:46:57;2.97;;;1.35;;
52180;SDS011;38158;53.338;6.514;2022-08-06T09:49:25;2.13;;;0.93;;
52180;SDS011;38158;53.338;6.514;2022-08-06T09:51:51;3.33;;;1.30;;
52180;SDS011;38158;53.338;6.514;2022-08-06T09:54:39;5.30;;;1.38;;
52180;SDS011;38158;53.338;6.514;2022-08-06T09:57:05;3.25;;;1.52;;
52180;SDS011;38158;53.338;6.514;2022-08-06T09:59:41;5.15;;;2.42;;
52180;SDS011;38158;53.338;6.514;2022-08-06T10:02:12;2.80;;;1.20;;
52180;SDS011;38158;53.338;6.514;2022-08-06T10:04:39;3.35;;;1.10;;
52180;SDS011;38158;53.338;6.514;2022-08-06T10:07:04;4.80;;;1.50;;
52180;SDS011;38158;53.338;6.514;2022-08-06T10:09:31;4.40;;;1.40;;
52180;SDS011;38158;53.338;6.514;2022-08-06T10:11:58;4.68;;;1.40;;
52180;SDS011;38158;53.338;6.514;2022-08-06T10:14:25;3.88;;;1.25;;
52180;SDS011;38158;53.338;6.514;2022-08-06T10:17:05;5.82;;;1.27;;
52180;SDS011;38158;53.338;6.514;2022-08-06T10:19:42;4.18;;;1.17;;
52180;SDS011;38158;53.338;6.514;2022-08-06T10:22:10;6.18;;;1.48;;
52180;SDS011;38158;53.338;6.514;2022-08-06T10:24:37;3.20;;;1.10;;
52180;SDS011;38158;53.338;6.514;2022-08-06T10:27:09;4.93;;;1.33;;
52180;SDS011;38158;53.338;6.514;2022-08-06T10:32:14;3.22;;;1.27;;
52180;SDS011;38158;53.338;6.514;2022-08-06T10:34:44;3.90;;;1.38;;
52180;SDS011;38158;53.338;6.514;2022-08-06T10:37:13;3.28;;;1.63;;
52180;SDS011;38158;53.338;6.514;2022-08-06T10:39:50;3.17;;;1.45;;
52180;SDS011;38158;53.338;6.514;2022-08-06T10:42:20;4.10;;;1.27;;
52180;SDS011;38158;53.338;6.514;2022-08-06T10:44:46;4.30;;;1.40;;
52180;SDS011;38158;53.338;6.514;2022-08-06T10:47:13;5.75;;;1.75;;
52180;SDS011;38158;53.338;6.514;2022-08-06T10:49:39;5.38;;;2.00;;
52180;SDS011;38158;53.338;6.514;2022-08-06T10:52:06;4.50;;;2.15;;
52180;SDS011;38158;53.338;6.514;2022-08-06T10:54:32;3.47;;;1.80;;
52180;SDS011;38158;53.338;6.514;2022-08-06T10:56:59;3.50;;;2.15;;
52180;SDS011;38158;53.338;6.514;2022-08-06T10:59:26;4.85;;;2.20;;
52180;SDS011;38158;53.338;6.514;2022-08-06T11:02:03;4.97;;;2.00;;
52180;SDS011;38158;53.338;6.514;2022-08-06T11:05:02;6.60;;;2.83;;
52180;SDS011;38158;53.338;6.514;2022-08-06T11:15:18;5.80;;;2.88;;
52180;SDS011;38158;53.338;6.514;2022-08-06T11:17:48;4.53;;;2.85;;
52180;SDS011;38158;53.338;6.514;2022-08-06T11:23:04;5.40;;;2.95;;
52180;SDS011;38158;53.338;6.514;2022-08-06T11:25:51;6.13;;;3.00;;
52180;SDS011;38158;53.338;6.514;2022-08-06T11:33:15;5.63;;;3.50;;
52180;SDS011;38158;53.338;6.514;2022-08-06T11:35:44;5.30;;;3.00;;
52180;SDS011;38158;53.338;6.514;2022-08-06T11:38:14;6.72;;;2.90;;
52180;SDS011;38158;53.338;6.514;2022-08-06T11:46:31;4.45;;;2.63;;
52180;SDS011;38158;53.338;6.514;2022-08-06T11:51:35;5.13;;;3.13;;
52180;SDS011;38158;53.338;6.514;2022-08-06T11:54:11;5.28;;;2.97;;
52180;SDS011;38158;53.338;6.514;2022-08-06T11:59:31;5.63;;;2.97;;
52180;SDS011;38158;53.338;6.514;2022-08-06T12:02:03;5.35;;;3.05;;
52180;SDS011;38158;53.338;6.514;2022-08-06T12:09:44;4.68;;;2.60;;
52180;SDS011;38158;53.338;6.514;2022-08-06T12:14:49;4.57;;;2.50;;
52180;SDS011;38158;53.338;6.514;2022-08-06T12:17:16;4.65;;;3.05;;
52180;SDS011;38158;53.338;6.514;2022-08-06T12:19:45;4.82;;;2.85;;
52180;SDS011;38158;53.338;6.514;2022-08-06T12:22:16;5.68;;;3.05;;
52180;SDS011;38158;53.338;6.514;2022-08-06T12:24:45;4.32;;;2.88;;
52180;SDS011;38158;53.338;6.514;2022-08-06T12:27:13;6.50;;;2.63;;
52180;SDS011;38158;53.338;6.514;2022-08-06T12:29:40;5.68;;;3.00;;
52180;SDS011;38158;53.338;6.514;2022-08-06T12:32:49;4.45;;;2.67;;
52180;SDS011;38158;53.338;6.514;2022-08-06T12:34:57;4.68;;;2.85;;
52180;SDS011;38158;53.338;6.514;2022-08-06T12:37:35;6.15;;;3.28;;
52180;SDS011;38158;53.338;6.514;2022-08-06T12:40:10;3.75;;;2.42;;
52180;SDS011;38158;53.338;6.514;2022-08-06T12:43:10;4.50;;;3.05;;
52180;SDS011;38158;53.338;6.514;2022-08-06T12:45:35;6.03;;;2.70;;
52180;SDS011;38158;53.338;6.514;2022-08-06T12:48:03;5.15;;;2.92;;
52180;SDS011;38158;53.338;6.514;2022-08-06T12:50:31;5.10;;;3.35;;
52180;SDS011;38158;53.338;6.514;2022-08-06T12:55:36;4.65;;;2.70;;
52180;SDS011;38158;53.338;6.514;2022-08-06T12:58:12;5.78;;;3.00;;
52180;SDS011;38158;53.338;6.514;2022-08-06T13:00:40;5.05;;;3.38;;
52180;SDS011;38158;53.338;6.514;2022-08-06T13:03:07;4.55;;;2.33;;
52180;SDS011;38158;53.338;6.514;2022-08-06T13:05:34;4.45;;;2.60;;
52180;SDS011;38158;53.338;6.514;2022-08-06T13:08:01;4.57;;;2.25;;
52180;SDS011;38158;53.338;6.514;2022-08-06T13:10:28;4.20;;;2.60;;
52180;SDS011;38158;53.338;6.514;2022-08-06T13:12:55;5.03;;;2.75;;
52180;SDS011;38158;53.338;6.514;2022-08-06T13:15:23;3.50;;;2.30;;
52180;SDS011;38158;53.338;6.514;2022-08-06T13:18:00;3.47;;;2.33;;
52180;SDS011;38158;53.338;6.514;2022-08-06T13:23:13;4.80;;;2.50;;
52180;SDS011;38158;53.338;6.514;2022-08-06T13:28:10;4.97;;;2.40;;
52180;SDS011;38158;53.338;6.514;2022-08-06T13:30:39;4.65;;;2.60;;
52180;SDS011;38158;53.338;6.514;2022-08-06T13:35:41;3.90;;;2.50;;
52180;SDS011;38158;53.338;6.514;2022-08-06T13:43:04;3.67;;;2.07;;
52180;SDS011;38158;53.338;6.514;2022-08-06T13:48:07;4.80;;;2.42;;
52180;SDS011;38158;53.338;6.514;2022-08-06T13:50:35;5.93;;;2.55;;
52180;SDS011;38158;53.338;6.514;2022-08-06T13:53:03;4.47;;;2.30;;
52180;SDS011;38158;53.338;6.514;2022-08-06T13:55:30;5.38;;;2.30;;
52180;SDS011;38158;53.338;6.514;2022-08-06T13:57:56;4.50;;;1.98;;
52180;SDS011;38158;53.338;6.514;2022-08-06T14:00:24;3.65;;;2.00;;
52180;SDS011;38158;53.338;6.514;2022-08-06T14:02:51;5.88;;;1.90;;
52180;SDS011;38158;53.338;6.514;2022-08-06T14:05:18;4.00;;;1.98;;
52180;SDS011;38158;53.338;6.514;2022-08-06T14:07:44;3.28;;;1.60;;
52180;SDS011;38158;53.338;6.514;2022-08-06T14:10:10;5.70;;;2.00;;
52180;SDS011;38158;53.338;6.514;2022-08-06T14:12:36;2.85;;;1.77;;
52180;SDS011;38158;53.338;6.514;2022-08-06T14:15:02;4.88;;;2.63;;
52180;SDS011;38158;53.338;6.514;2022-08-06T14:17:29;4.05;;;2.15;;
52180;SDS011;38158;53.338;6.514;2022-08-06T14:19:57;4.47;;;2.03;;
52180;SDS011;38158;53.338;6.514;2022-08-06T14:22:23;4.35;;;2.40;;
52180;SDS011;38158;53.338;6.514;2022-08-06T14:24:49;3.90;;;2.50;;
52180;SDS011;38158;53.338;6.514;2022-08-06T14:27:14;5.85;;;2.28;;
52180;SDS011;38158;53.338;6.514;2022-08-06T14:29:40;4.38;;;1.75;;
52180;SDS011;38158;53.338;6.514;2022-08-06T14:32:06;4.28;;;1.90;;
52180;SDS011;38158;53.338;6.514;2022-08-06T14:34:32;4.47;;;1.75;;
52180;SDS011;38158;53.338;6.514;2022-08-06T14:36:59;3.42;;;1.98;;
52180;SDS011;38158;53.338;6.514;2022-08-06T14:39:24;4.25;;;2.03;;
52180;SDS011;38158;53.338;6.514;2022-08-06T14:41:50;3.83;;;1.65;;
52180;SDS011;38158;53.338;6.514;2022-08-06T14:44:34;3.72;;;1.80;;
52180;SDS011;38158;53.338;6.514;2022-08-06T14:47:19;4.00;;;2.00;;
52180;SDS011;38158;53.338;6.514;2022-08-06T14:49:45;2.97;;;1.33;;
52180;SDS011;38158;53.338;6.514;2022-08-06T14:52:10;4.15;;;1.40;;
52180;SDS011;38158;53.338;6.514;2022-08-06T14:54:36;3.28;;;1.83;;
52180;SDS011;38158;53.338;6.514;2022-08-06T14:57:03;2.25;;;1.17;;
52180;SDS011;38158;53.338;6.514;2022-08-06T14:59:30;4.85;;;1.73;;
52180;SDS011;38158;53.338;6.514;2022-08-06T15:01:56;4.43;;;1.80;;
52180;SDS011;38158;53.338;6.514;2022-08-06T15:04:22;3.05;;;1.80;;
52180;SDS011;38158;53.338;6.514;2022-08-06T15:06:48;4.03;;;1.92;;
52180;SDS011;38158;53.338;6.514;2022-08-06T15:09:15;3.58;;;1.63;;
52180;SDS011;38158;53.338;6.514;2022-08-06T15:11:40;5.30;;;1.60;;
52180;SDS011;38158;53.338;6.514;2022-08-06T15:14:09;3.60;;;1.58;;
52180;SDS011;38158;53.338;6.514;2022-08-06T15:16:34;4.10;;;1.70;;
52180;SDS011;38158;53.338;6.514;2022-08-06T15:19:00;3.78;;;2.05;;
52180;SDS011;38158;53.338;6.514;2022-08-06T15:21:26;2.75;;;1.50;;
52180;SDS011;38158;53.338;6.514;2022-08-06T15:23:51;3.08;;;1.55;;
52180;SDS011;38158;53.338;6.514;2022-08-06T15:26:19;3.72;;;1.70;;
52180;SDS011;38158;53.338;6.514;2022-08-06T15:28:45;5.33;;;1.87;;
52180;SDS011;38158;53.338;6.514;2022-08-06T15:31:11;4.65;;;1.92;;
52180;SDS011;38158;53.338;6.514;2022-08-06T15:33:37;3.25;;;1.60;;
52180;SDS011;38158;53.338;6.514;2022-08-06T15:36:03;3.28;;;1.58;;
52180;SDS011;38158;53.338;6.514;2022-08-06T15:38:29;3.95;;;1.50;;
52180;SDS011;38158;53.338;6.514;2022-08-06T15:40:55;3.15;;;1.50;;
52180;SDS011;38158;53.338;6.514;2022-08-06T15:43:21;6.45;;;1.45;;
52180;SDS011;38158;53.338;6.514;2022-08-06T15:45:49;5.60;;;1.98;;
52180;SDS011;38158;53.338;6.514;2022-08-06T15:48:15;5.15;;;1.98;;
52180;SDS011;38158;53.338;6.514;2022-08-06T15:50:43;4.05;;;1.63;;
52180;SDS011;38158;53.338;6.514;2022-08-06T15:53:11;3.45;;;1.40;;
52180;SDS011;38158;53.338;6.514;2022-08-06T15:55:40;6.30;;;1.90;;
52180;SDS011;38158;53.338;6.514;2022-08-06T15:58:05;3.28;;;1.50;;
52180;SDS011;38158;53.338;6.514;2022-08-06T16:00:32;6.45;;;2.10;;
52180;SDS011;38158;53.338;6.514;2022-08-06T16:02:59;4.32;;;1.75;;
52180;SDS011;38158;53.338;6.514;2022-08-06T16:05:25;5.65;;;1.65;;
52180;SDS011;38158;53.338;6.514;2022-08-06T16:07:51;5.10;;;2.25;;
52180;SDS011;38158;53.338;6.514;2022-08-06T16:10:17;3.42;;;1.58;;
52180;SDS011;38158;53.338;6.514;2022-08-06T16:12:42;2.78;;;1.60;;
52180;SDS011;38158;53.338;6.514;2022-08-06T16:15:08;5.28;;;1.42;;
52180;SDS011;38158;53.338;6.514;2022-08-06T16:17:34;4.80;;;1.58;;
52180;SDS011;38158;53.338;6.514;2022-08-06T16:20:00;3.55;;;1.65;;
52180;SDS011;38158;53.338;6.514;2022-08-06T16:22:26;3.55;;;1.75;;
52180;SDS011;38158;53.338;6.514;2022-08-06T16:24:55;4.93;;;1.80;;
52180;SDS011;38158;53.338;6.514;2022-08-06T16:27:21;3.30;;;1.60;;
52180;SDS011;38158;53.338;6.514;2022-08-06T16:29:46;2.85;;;1.73;;
52180;SDS011;38158;53.338;6.514;2022-08-06T16:32:13;3.10;;;1.80;;
52180;SDS011;38158;53.338;6.514;2022-08-06T16:34:39;3.45;;;1.83;;
52180;SDS011;38158;53.338;6.514;2022-08-06T16:37:08;3.70;;;1.85;;
52180;SDS011;38158;53.338;6.514;2022-08-06T16:39:34;3.53;;;1.90;;
52180;SDS011;38158;53.338;6.514;2022-08-06T16:42:01;3.40;;;1.77;;
52180;SDS011;38158;53.338;6.514;2022-08-06T16:44:27;3.97;;;2.05;;
52180;SDS011;38158;53.338;6.514;2022-08-06T16:46:53;3.78;;;1.98;;
52180;SDS011;38158;53.338;6.514;2022-08-06T16:49:19;3.80;;;1.75;;
52180;SDS011;38158;53.338;6.514;2022-08-06T16:51:45;5.93;;;2.00;;